sensor_id;sensor_type;location;lat;lon;timestamp;temperature;humidity
29817;DHT22;16805;52.956;5.906;2022-07-12T00:01:57;17.00;99.90
29817;DHT22;16805;52.956;5.906;2022-07-12T00:04:22;16.90;99.90
29817;DHT22;16805;52.956;5.906;2022-07-12T00:06:48;16.90;99.90
29817;DHT22;16805;52.956;5.906;2022-07-12T00:09:14;16.90;99.90
29817;DHT22;16805;52.956;5.906;2022-07-12T00:11:39;16.80;99.90
29817;DHT22;16805;52.956;5.906;2022-07-12T00:14:05;16.80;99.90
29817;DHT22;16805;52.956;5.906;2022-07-12T00:16:31;16.80;99.90
29817;DHT22;16805;52.956;5.906;2022-07-12T00:18:57;16.80;99.90
29817;DHT22;16805;52.956;5.906;2022-07-12T00:21:23;16.70;99.90
29817;DHT22;16805;52.956;5.906;2022-07-12T00:23:48;16.60;99.90
29817;DHT22;16805;52.956;5.906;2022-07-12T00:26:14;16.50;99.90
29817;DHT22;16805;52.956;5.906;2022-07-12T00:28:40;16.40;99.90
29817;DHT22;16805;52.956;5.906;2022-07-12T00:31:05;16.50;99.90
29817;DHT22;16805;52.956;5.906;2022-07-12T00:33:31;16.40;99.90
29817;DHT22;16805;52.956;5.906;2022-07-12T00:35:57;16.50;99.90
29817;DHT22;16805;52.956;5.906;2022-07-12T00:38:22;16.50;99.90
29817;DHT22;16805;52.956;5.906;2022-07-12T00:40:48;16.50;99.90
29817;DHT22;16805;52.956;5.906;2022-07-12T00:43:17;16.50;99.90
29817;DHT22;16805;52.956;5.906;2022-07-12T00:45:42;16.50;99.90
29817;DHT22;16805;52.956;5.906;2022-07-12T00:48:08;16.50;99.90
29817;DHT22;16805;52.956;5.906;2022-07-12T00:50:35;16.50;99.90
29817;DHT22;16805;52.956;5.906;2022-07-12T00:53:02;16.50;99.90
29817;DHT22;16805;52.956;5.906;2022-07-12T00:55:27;16.50;99.90
29817;DHT22;16805;52.956;5.906;2022-07-12T00:57:53;16.50;99.90
29817;DHT22;16805;52.956;5.906;2022-07-12T01:00:27;16.40;99.90
29817;DHT22;16805;52.956;5.906;2022-07-12T01:02:55;16.40;99.90
29817;DHT22;16805;52.956;5.906;2022-07-12T01:05:21;16.30;99.90
29817;DHT22;16805;52.956;5.906;2022-07-12T01:08:06;16.30;99.90
29817;DHT22;16805;52.956;5.906;2022-07-12T01:10:32;16.30;99.90
29817;DHT22;16805;52.956;5.906;2022-07-12T01:12:59;16.30;99.90
29817;DHT22;16805;52.956;5.906;2022-07-12T01:15:26;16.20;99.90
29817;DHT22;16805;52.956;5.906;2022-07-12T01:17:52;16.30;99.90
29817;DHT22;16805;52.956;5.906;2022-07-12T01:20:18;16.30;99.90
29817;DHT22;16805;52.956;5.906;2022-07-12T01:22:53;16.30;99.90
29817;DHT22;16805;52.956;5.906;2022-07-12T01:25:19;16.30;99.90
29817;DHT22;16805;52.956;5.906;2022-07-12T01:27:45;16.30;99.90
29817;DHT22;16805;52.956;5.906;2022-07-12T01:30:11;16.20;99.90
29817;DHT22;16805;52.956;5.906;2022-07-12T01:32:37;16.10;99.90
29817;DHT22;16805;52.956;5.906;2022-07-12T01:35:06;16.00;99.90
29817;DHT22;16805;52.956;5.906;2022-07-12T01:37:37;15.90;99.90
29817;DHT22;16805;52.956;5.906;2022-07-12T01:40:05;15.90;99.90
29817;DHT22;16805;52.956;5.906;2022-07-12T01:42:31;15.90;99.90
29817;DHT22;16805;52.956;5.906;2022-07-12T01:44:58;15.90;99.90
29817;DHT22;16805;52.956;5.906;2022-07-12T01:47:26;15.80;99.90
29817;DHT22;16805;52.956;5.906;2022-07-12T01:49:52;15.80;99.90
29817;DHT22;16805;52.956;5.906;2022-07-12T01:52:19;15.80;99.90
29817;DHT22;16805;52.956;5.906;2022-07-12T01:54:45;15.80;99.90
29817;DHT22;16805;52.956;5.906;2022-07-12T01:57:11;15.80;99.90
29817;DHT22;16805;52.956;5.906;2022-07-12T01:59:56;15.70;99.90
29817;DHT22;16805;52.956;5.906;2022-07-12T02:02:25;15.80;99.90
29817;DHT22;16805;52.956;5.906;2022-07-12T02:04:53;15.80;99.90
29817;DHT22;16805;52.956;5.906;2022-07-12T02:07:20;15.90;99.90
29817;DHT22;16805;52.956;5.906;2022-07-12T02:09:46;15.90;99.90
29817;DHT22;16805;52.956;5.906;2022-07-12T02:12:11;15.90;99.90
29817;DHT22;16805;52.956;5.906;2022-07-12T02:14:37;15.80;99.90
29817;DHT22;16805;52.956;5.906;2022-07-12T02:17:03;15.70;99.90
29817;DHT22;16805;52.956;5.906;2022-07-12T02:19:28;15.60;99.90
29817;DHT22;16805;52.956;5.906;2022-07-12T02:21:54;15.60;99.90
29817;DHT22;16805;52.956;5.906;2022-07-12T02:24:20;15.50;99.90
29817;DHT22;16805;52.956;5.906;2022-07-12T02:26:45;15.50;99.90
29817;DHT22;16805;52.956;5.906;2022-07-12T02:29:11;15.40;99.90
29817;DHT22;16805;52.956;5.906;2022-07-12T02:31:36;15.40;99.90
29817;DHT22;16805;52.956;5.906;2022-07-12T02:34:02;15.30;99.90
29817;DHT22;16805;52.956;5.906;2022-07-12T02:36:29;15.30;99.90
29817;DHT22;16805;52.956;5.906;2022-07-12T02:38:55;15.20;99.90
29817;DHT22;16805;52.956;5.906;2022-07-12T02:41:21;15.20;99.90
29817;DHT22;16805;52.956;5.906;2022-07-12T02:43:46;15.30;99.90
29817;DHT22;16805;52.956;5.906;2022-07-12T02:46:13;15.20;99.90
29817;DHT22;16805;52.956;5.906;2022-07-12T02:48:41;15.20;99.90
29817;DHT22;16805;52.956;5.906;2022-07-12T02:51:08;15.20;99.90
29817;DHT22;16805;52.956;5.906;2022-07-12T02:53:35;15.10;99.90
29817;DHT22;16805;52.956;5.906;2022-07-12T02:56:01;15.10;99.90
29817;DHT22;16805;52.956;5.906;2022-07-12T02:58:26;15.10;99.90
29817;DHT22;16805;52.956;5.906;2022-07-12T03:00:52;15.00;99.90
29817;DHT22;16805;52.956;5.906;2022-07-12T03:03:18;15.00;99.90
29817;DHT22;16805;52.956;5.906;2022-07-12T03:05:44;14.90;99.90
29817;DHT22;16805;52.956;5.906;2022-07-12T03:08:10;14.90;99.90
29817;DHT22;16805;52.956;5.906;2022-07-12T03:10:37;14.90;99.90
29817;DHT22;16805;52.956;5.906;2022-07-12T03:13:03;14.90;99.90
29817;DHT22;16805;52.956;5.906;2022-07-12T03:15:30;14.90;99.90
29817;DHT22;16805;52.956;5.906;2022-07-12T03:17:56;14.90;99.90
29817;DHT22;16805;52.956;5.906;2022-07-12T03:20:22;14.80;99.90
29817;DHT22;16805;52.956;5.906;2022-07-12T03:22:48;14.80;99.90
29817;DHT22;16805;52.956;5.906;2022-07-12T03:25:17;14.80;99.90
29817;DHT22;16805;52.956;5.906;2022-07-12T03:27:44;14.80;99.90
29817;DHT22;16805;52.956;5.906;2022-07-12T03:30:11;14.80;99.90
29817;DHT22;16805;52.956;5.906;2022-07-12T03:32:37;14.70;99.90
29817;DHT22;16805;52.956;5.906;2022-07-12T03:35:02;14.70;99.90
29817;DHT22;16805;52.956;5.906;2022-07-12T03:37:45;14.70;99.90
29817;DHT22;16805;52.956;5.906;2022-07-12T03:40:12;14.70;99.90
29817;DHT22;16805;52.956;5.906;2022-07-12T03:42:39;14.70;99.90
29817;DHT22;16805;52.956;5.906;2022-07-12T03:45:04;14.60;99.90
29817;DHT22;16805;52.956;5.906;2022-07-12T03:47:31;14.60;99.90
29817;DHT22;16805;52.956;5.906;2022-07-12T03:50:07;14.60;99.90
29817;DHT22;16805;52.956;5.906;2022-07-12T03:52:34;14.60;99.90
29817;DHT22;16805;52.956;5.906;2022-07-12T03:55:00;14.70;99.90
29817;DHT22;16805;52.956;5.906;2022-07-12T03:57:28;14.70;99.90
29817;DHT22;16805;52.956;5.906;2022-07-12T03:59:54;14.80;99.90
29817;DHT22;16805;52.956;5.906;2022-07-12T04:02:20;14.90;99.90
29817;DHT22;16805;52.956;5.906;2022-07-12T04:04:45;14.90;99.90
29817;DHT22;16805;52.956;5.906;2022-07-12T04:07:11;14.90;99.90
29817;DHT22;16805;52.956;5.906;2022-07-12T04:09:37;15.00;99.90
29817;DHT22;16805;52.956;5.906;2022-07-12T04:12:03;15.00;99.90
29817;DHT22;16805;52.956;5.906;2022-07-12T04:14:29;15.20;99.90
29817;DHT22;16805;52.956;5.906;2022-07-12T04:16:55;15.30;99.90
29817;DHT22;16805;52.956;5.906;2022-07-12T04:19:21;15.30;99.90
29817;DHT22;16805;52.956;5.906;2022-07-12T04:21:56;15.30;99.90
29817;DHT22;16805;52.956;5.906;2022-07-12T04:24:22;15.40;99.90
29817;DHT22;16805;52.956;5.906;2022-07-12T04:26:48;15.50;99.90
29817;DHT22;16805;52.956;5.906;2022-07-12T04:29:15;15.60;99.90
29817;DHT22;16805;52.956;5.906;2022-07-12T04:31:41;15.70;99.90
29817;DHT22;16805;52.956;5.906;2022-07-12T04:34:06;15.80;99.90
29817;DHT22;16805;52.956;5.906;2022-07-12T04:36:32;15.90;99.90
29817;DHT22;16805;52.956;5.906;2022-07-12T04:38:58;16.00;99.90
29817;DHT22;16805;52.956;5.906;2022-07-12T04:41:24;16.20;99.90
29817;DHT22;16805;52.956;5.906;2022-07-12T04:43:49;16.30;99.90
29817;DHT22;16805;52.956;5.906;2022-07-12T04:46:16;16.40;99.90
29817;DHT22;16805;52.956;5.906;2022-07-12T04:48:41;16.50;99.90
29817;DHT22;16805;52.956;5.906;2022-07-12T04:51:07;16.70;99.90
29817;DHT22;16805;52.956;5.906;2022-07-12T04:53:32;16.80;99.90
29817;DHT22;16805;52.956;5.906;2022-07-12T04:55:58;16.90;99.90
29817;DHT22;16805;52.956;5.906;2022-07-12T04:58:24;17.00;99.90
29817;DHT22;16805;52.956;5.906;2022-07-12T05:00:50;17.10;99.90
29817;DHT22;16805;52.956;5.906;2022-07-12T05:03:16;17.20;99.90
29817;DHT22;16805;52.956;5.906;2022-07-12T05:05:42;17.20;99.90
29817;DHT22;16805;52.956;5.906;2022-07-12T05:08:07;17.20;99.90
29817;DHT22;16805;52.956;5.906;2022-07-12T05:10:33;17.30;99.90
29817;DHT22;16805;52.956;5.906;2022-07-12T05:13:00;17.20;99.90
29817;DHT22;16805;52.956;5.906;2022-07-12T05:15:25;17.20;99.90
29817;DHT22;16805;52.956;5.906;2022-07-12T05:17:51;17.20;99.90
29817;DHT22;16805;52.956;5.906;2022-07-12T05:20:16;17.20;99.90
29817;DHT22;16805;52.956;5.906;2022-07-12T05:22:42;17.20;99.90
29817;DHT22;16805;52.956;5.906;2022-07-12T05:25:08;17.10;99.90
29817;DHT22;16805;52.956;5.906;2022-07-12T05:27:35;17.10;99.90
29817;DHT22;16805;52.956;5.906;2022-07-12T05:30:01;17.10;99.90
29817;DHT22;16805;52.956;5.906;2022-07-12T05:32:27;17.10;99.90
29817;DHT22;16805;52.956;5.906;2022-07-12T05:34:52;17.10;99.90
29817;DHT22;16805;52.956;5.906;2022-07-12T05:37:18;17.10;99.90
29817;DHT22;16805;52.956;5.906;2022-07-12T05:39:44;17.10;99.90
29817;DHT22;16805;52.956;5.906;2022-07-12T05:42:09;17.10;99.90
29817;DHT22;16805;52.956;5.906;2022-07-12T05:44:35;17.10;99.90
29817;DHT22;16805;52.956;5.906;2022-07-12T05:47:01;17.20;99.90
29817;DHT22;16805;52.956;5.906;2022-07-12T05:49:26;17.20;99.90
29817;DHT22;16805;52.956;5.906;2022-07-12T05:51:52;17.20;99.90
29817;DHT22;16805;52.956;5.906;2022-07-12T05:54:36;17.20;99.90
29817;DHT22;16805;52.956;5.906;2022-07-12T05:57:02;17.20;99.90
29817;DHT22;16805;52.956;5.906;2022-07-12T05:59:27;17.30;99.90
29817;DHT22;16805;52.956;5.906;2022-07-12T06:01:54;17.30;99.90
29817;DHT22;16805;52.956;5.906;2022-07-12T06:04:20;17.40;99.90
29817;DHT22;16805;52.956;5.906;2022-07-12T06:06:45;17.50;99.90
29817;DHT22;16805;52.956;5.906;2022-07-12T06:09:11;17.70;99.90
29817;DHT22;16805;52.956;5.906;2022-07-12T06:11:37;17.90;99.90
29817;DHT22;16805;52.956;5.906;2022-07-12T06:14:03;18.10;99.90
29817;DHT22;16805;52.956;5.906;2022-07-12T06:16:28;18.30;99.90
29817;DHT22;16805;52.956;5.906;2022-07-12T06:18:55;18.40;99.90
29817;DHT22;16805;52.956;5.906;2022-07-12T06:21:21;18.50;99.90
29817;DHT22;16805;52.956;5.906;2022-07-12T06:23:46;18.60;99.90
29817;DHT22;16805;52.956;5.906;2022-07-12T06:26:12;18.70;99.90
29817;DHT22;16805;52.956;5.906;2022-07-12T06:28:37;18.80;99.90
29817;DHT22;16805;52.956;5.906;2022-07-12T06:31:03;18.90;99.90
29817;DHT22;16805;52.956;5.906;2022-07-12T06:33:29;19.00;99.90
29817;DHT22;16805;52.956;5.906;2022-07-12T06:35:55;19.10;99.90
29817;DHT22;16805;52.956;5.906;2022-07-12T06:38:20;19.20;99.90
29817;DHT22;16805;52.956;5.906;2022-07-12T06:40:46;19.40;99.90
29817;DHT22;16805;52.956;5.906;2022-07-12T06:43:12;19.50;99.90
29817;DHT22;16805;52.956;5.906;2022-07-12T06:45:39;19.50;99.90
29817;DHT22;16805;52.956;5.906;2022-07-12T06:48:23;19.60;99.90
29817;DHT22;16805;52.956;5.906;2022-07-12T06:50:49;19.60;99.90
29817;DHT22;16805;52.956;5.906;2022-07-12T06:53:15;19.50;99.90
29817;DHT22;16805;52.956;5.906;2022-07-12T06:55:42;19.50;99.90
29817;DHT22;16805;52.956;5.906;2022-07-12T06:58:08;19.50;99.90
29817;DHT22;16805;52.956;5.906;2022-07-12T07:00:34;19.50;99.90
29817;DHT22;16805;52.956;5.906;2022-07-12T07:03:00;19.50;99.90
29817;DHT22;16805;52.956;5.906;2022-07-12T07:05:26;19.60;99.90
29817;DHT22;16805;52.956;5.906;2022-07-12T07:07:51;19.80;99.90
29817;DHT22;16805;52.956;5.906;2022-07-12T07:10:17;19.90;99.90
29817;DHT22;16805;52.956;5.906;2022-07-12T07:12:42;20.10;99.90
29817;DHT22;16805;52.956;5.906;2022-07-12T07:15:09;20.30;99.90
29817;DHT22;16805;52.956;5.906;2022-07-12T07:17:34;20.50;99.90
29817;DHT22;16805;52.956;5.906;2022-07-12T07:20:00;20.60;99.90
29817;DHT22;16805;52.956;5.906;2022-07-12T07:22:26;20.70;99.90
29817;DHT22;16805;52.956;5.906;2022-07-12T07:24:52;20.80;99.90
29817;DHT22;16805;52.956;5.906;2022-07-12T07:27:18;20.80;99.90
29817;DHT22;16805;52.956;5.906;2022-07-12T07:29:44;20.80;99.90
29817;DHT22;16805;52.956;5.906;2022-07-12T07:32:28;20.80;99.90
29817;DHT22;16805;52.956;5.906;2022-07-12T07:34:54;20.70;99.90
29817;DHT22;16805;52.956;5.906;2022-07-12T07:37:20;20.70;99.90
29817;DHT22;16805;52.956;5.906;2022-07-12T07:39:45;20.80;99.90
29817;DHT22;16805;52.956;5.906;2022-07-12T07:42:11;20.80;99.90
29817;DHT22;16805;52.956;5.906;2022-07-12T07:44:36;20.80;99.90
29817;DHT22;16805;52.956;5.906;2022-07-12T07:47:02;20.80;99.90
29817;DHT22;16805;52.956;5.906;2022-07-12T07:49:28;20.80;99.90
29817;DHT22;16805;52.956;5.906;2022-07-12T07:51:54;20.90;99.90
29817;DHT22;16805;52.956;5.906;2022-07-12T07:54:20;20.90;99.90
29817;DHT22;16805;52.956;5.906;2022-07-12T07:56:45;20.90;99.90
29817;DHT22;16805;52.956;5.906;2022-07-12T07:59:11;20.90;99.90
29817;DHT22;16805;52.956;5.906;2022-07-12T08:01:36;20.90;99.90
29817;DHT22;16805;52.956;5.906;2022-07-12T08:04:12;20.90;99.90
29817;DHT22;16805;52.956;5.906;2022-07-12T08:06:38;20.90;99.90
29817;DHT22;16805;52.956;5.906;2022-07-12T08:09:04;20.90;99.90
29817;DHT22;16805;52.956;5.906;2022-07-12T08:11:31;20.90;99.90
29817;DHT22;16805;52.956;5.906;2022-07-12T08:13:57;21.00;99.90
29817;DHT22;16805;52.956;5.906;2022-07-12T08:16:23;21.10;99.90
29817;DHT22;16805;52.956;5.906;2022-07-12T08:18:48;21.20;99.90
29817;DHT22;16805;52.956;5.906;2022-07-12T08:21:14;21.30;99.90
29817;DHT22;16805;52.956;5.906;2022-07-12T08:23:39;21.40;99.90
29817;DHT22;16805;52.956;5.906;2022-07-12T08:26:05;21.60;99.90
29817;DHT22;16805;52.956;5.906;2022-07-12T08:28:31;21.80;99.90
29817;DHT22;16805;52.956;5.906;2022-07-12T08:30:56;21.90;99.90
29817;DHT22;16805;52.956;5.906;2022-07-12T08:33:22;22.10;99.90
29817;DHT22;16805;52.956;5.906;2022-07-12T08:35:47;22.20;99.90
29817;DHT22;16805;52.956;5.906;2022-07-12T08:38:13;22.40;99.90
29817;DHT22;16805;52.956;5.906;2022-07-12T08:40:41;22.60;99.90
29817;DHT22;16805;52.956;5.906;2022-07-12T08:43:25;22.80;99.90
29817;DHT22;16805;52.956;5.906;2022-07-12T08:45:51;23.00;99.90
29817;DHT22;16805;52.956;5.906;2022-07-12T08:48:16;23.20;99.90
29817;DHT22;16805;52.956;5.906;2022-07-12T08:50:42;23.30;99.90
29817;DHT22;16805;52.956;5.906;2022-07-12T08:53:11;23.40;99.90
29817;DHT22;16805;52.956;5.906;2022-07-12T08:55:37;23.50;99.90
29817;DHT22;16805;52.956;5.906;2022-07-12T08:58:15;23.50;99.90
29817;DHT22;16805;52.956;5.906;2022-07-12T09:00:41;23.60;99.90
29817;DHT22;16805;52.956;5.906;2022-07-12T09:03:06;23.70;99.90
29817;DHT22;16805;52.956;5.906;2022-07-12T09:05:34;23.80;99.90
29817;DHT22;16805;52.956;5.906;2022-07-12T09:08:09;23.90;99.90
29817;DHT22;16805;52.956;5.906;2022-07-12T09:13:21;24.00;99.90
29817;DHT22;16805;52.956;5.906;2022-07-12T09:16:13;24.10;99.90
29817;DHT22;16805;52.956;5.906;2022-07-12T09:18:39;24.30;99.90
29817;DHT22;16805;52.956;5.906;2022-07-12T09:21:05;24.50;99.90
29817;DHT22;16805;52.956;5.906;2022-07-12T09:23:30;24.60;99.90
29817;DHT22;16805;52.956;5.906;2022-07-12T09:25:56;24.70;99.90
29817;DHT22;16805;52.956;5.906;2022-07-12T09:28:22;24.70;99.90
29817;DHT22;16805;52.956;5.906;2022-07-12T09:30:52;24.70;99.90
29817;DHT22;16805;52.956;5.906;2022-07-12T09:33:37;24.70;99.90
29817;DHT22;16805;52.956;5.906;2022-07-12T09:36:24;24.90;99.90
29817;DHT22;16805;52.956;5.906;2022-07-12T09:38:54;25.00;99.90
29817;DHT22;16805;52.956;5.906;2022-07-12T09:41:26;25.20;99.90
29817;DHT22;16805;52.956;5.906;2022-07-12T09:43:52;25.40;99.90
29817;DHT22;16805;52.956;5.906;2022-07-12T09:46:18;25.50;99.90
29817;DHT22;16805;52.956;5.906;2022-07-12T09:48:45;25.70;99.90
29817;DHT22;16805;52.956;5.906;2022-07-12T09:51:16;25.90;99.90
29817;DHT22;16805;52.956;5.906;2022-07-12T09:53:44;26.00;99.90
29817;DHT22;16805;52.956;5.906;2022-07-12T09:56:12;26.20;99.90
29817;DHT22;16805;52.956;5.906;2022-07-12T09:58:51;26.30;99.90
29817;DHT22;16805;52.956;5.906;2022-07-12T10:01:18;26.40;99.90
29817;DHT22;16805;52.956;5.906;2022-07-12T10:03:44;26.50;99.90
29817;DHT22;16805;52.956;5.906;2022-07-12T10:06:12;26.40;99.90
29817;DHT22;16805;52.956;5.906;2022-07-12T10:08:40;26.40;99.90
29817;DHT22;16805;52.956;5.906;2022-07-12T10:11:06;26.30;99.90
29817;DHT22;16805;52.956;5.906;2022-07-12T10:13:33;26.30;99.90
29817;DHT22;16805;52.956;5.906;2022-07-12T10:16:03;26.30;99.90
29817;DHT22;16805;52.956;5.906;2022-07-12T10:18:29;26.20;99.90
29817;DHT22;16805;52.956;5.906;2022-07-12T10:20:55;26.20;99.90
29817;DHT22;16805;52.956;5.906;2022-07-12T10:23:34;26.20;99.90
29817;DHT22;16805;52.956;5.906;2022-07-12T10:29:02;26.30;99.90
29817;DHT22;16805;52.956;5.906;2022-07-12T10:31:36;26.40;99.90
29817;DHT22;16805;52.956;5.906;2022-07-12T10:34:09;26.40;99.90
29817;DHT22;16805;52.956;5.906;2022-07-12T10:39:20;26.40;99.90
29817;DHT22;16805;52.956;5.906;2022-07-12T10:42:12;26.40;99.90
29817;DHT22;16805;52.956;5.906;2022-07-12T10:44:40;26.40;99.90
29817;DHT22;16805;52.956;5.906;2022-07-12T10:47:08;26.30;99.90
29817;DHT22;16805;52.956;5.906;2022-07-12T10:49:35;26.40;99.90
29817;DHT22;16805;52.956;5.906;2022-07-12T10:57:08;26.50;99.90
29817;DHT22;16805;52.956;5.906;2022-07-12T10:59:36;26.60;99.90
29817;DHT22;16805;52.956;5.906;2022-07-12T11:02:03;26.70;99.90
29817;DHT22;16805;52.956;5.906;2022-07-12T11:04:28;26.80;99.90
29817;DHT22;16805;52.956;5.906;2022-07-12T11:06:55;26.90;99.90
29817;DHT22;16805;52.956;5.906;2022-07-12T11:09:23;27.00;99.90
29817;DHT22;16805;52.956;5.906;2022-07-12T11:11:50;27.10;99.90
29817;DHT22;16805;52.956;5.906;2022-07-12T11:14:29;27.10;99.90
29817;DHT22;16805;52.956;5.906;2022-07-12T11:16:56;27.20;99.90
29817;DHT22;16805;52.956;5.906;2022-07-12T11:19:24;27.20;99.90
29817;DHT22;16805;52.956;5.906;2022-07-12T11:21:51;27.30;99.90
29817;DHT22;16805;52.956;5.906;2022-07-12T11:24:25;27.30;99.90
29817;DHT22;16805;52.956;5.906;2022-07-12T11:26:51;27.40;99.90
29817;DHT22;16805;52.956;5.906;2022-07-12T11:29:18;27.50;99.90
29817;DHT22;16805;52.956;5.906;2022-07-12T11:31:45;27.50;99.90
29817;DHT22;16805;52.956;5.906;2022-07-12T11:34:24;27.50;99.90
29817;DHT22;16805;52.956;5.906;2022-07-12T11:36:54;27.50;99.90
29817;DHT22;16805;52.956;5.906;2022-07-12T11:39:37;27.60;99.90
29817;DHT22;16805;52.956;5.906;2022-07-12T11:42:04;27.60;99.90
29817;DHT22;16805;52.956;5.906;2022-07-12T11:45:04;27.60;99.90
29817;DHT22;16805;52.956;5.906;2022-07-12T11:47:32;27.60;99.90
29817;DHT22;16805;52.956;5.906;2022-07-12T11:49:58;27.60;99.90
29817;DHT22;16805;52.956;5.906;2022-07-12T11:52:24;27.60;99.90
29817;DHT22;16805;52.956;5.906;2022-07-12T11:54:51;27.60;99.90
29817;DHT22;16805;52.956;5.906;2022-07-12T11:57:20;27.70;99.90
29817;DHT22;16805;52.956;5.906;2022-07-12T11:59:46;27.70;99.90
29817;DHT22;16805;52.956;5.906;2022-07-12T12:02:13;27.70;99.90
29817;DHT22;16805;52.956;5.906;2022-07-12T12:04:51;27.70;99.90
29817;DHT22;16805;52.956;5.906;2022-07-12T12:07:19;27.70;99.90
29817;DHT22;16805;52.956;5.906;2022-07-12T12:12:28;27.60;99.90
29817;DHT22;16805;52.956;5.906;2022-07-12T12:15:05;27.60;99.90
29817;DHT22;16805;52.956;5.906;2022-07-12T12:17:31;27.60;99.90
29817;DHT22;16805;52.956;5.906;2022-07-12T12:19:57;27.60;99.90
29817;DHT22;16805;52.956;5.906;2022-07-12T12:22:35;27.60;99.90
29817;DHT22;16805;52.956;5.906;2022-07-12T12:25:04;27.50;99.90
29817;DHT22;16805;52.956;5.906;2022-07-12T12:27:30;27.50;99.90
29817;DHT22;16805;52.956;5.906;2022-07-12T12:30:07;27.50;99.90
29817;DHT22;16805;52.956;5.906;2022-07-12T12:32:57;27.50;99.90
29817;DHT22;16805;52.956;5.906;2022-07-12T12:35:33;27.40;99.90
29817;DHT22;16805;52.956;5.906;2022-07-12T12:38:10;27.40;99.90
29817;DHT22;16805;52.956;5.906;2022-07-12T12:40:36;27.30;99.90
29817;DHT22;16805;52.956;5.906;2022-07-12T12:43:10;27.30;99.90
29817;DHT22;16805;52.956;5.906;2022-07-12T12:45:48;27.20;99.90
29817;DHT22;16805;52.956;5.906;2022-07-12T12:48:18;27.10;99.90
29817;DHT22;16805;52.956;5.906;2022-07-12T12:50:48;27.10;99.90
29817;DHT22;16805;52.956;5.906;2022-07-12T12:53:20;27.00;99.90
29817;DHT22;16805;52.956;5.906;2022-07-12T12:55:48;27.00;99.90
29817;DHT22;16805;52.956;5.906;2022-07-12T12:58:15;26.90;99.90
29817;DHT22;16805;52.956;5.906;2022-07-12T13:00:43;26.90;99.90
29817;DHT22;16805;52.956;5.906;2022-07-12T13:03:15;26.80;99.90
29817;DHT22;16805;52.956;5.906;2022-07-12T13:05:41;26.80;99.90
29817;DHT22;16805;52.956;5.906;2022-07-12T13:08:09;26.80;99.90
29817;DHT22;16805;52.956;5.906;2022-07-12T13:10:35;26.70;99.90
29817;DHT22;16805;52.956;5.906;2022-07-12T13:13:02;26.70;99.90
29817;DHT22;16805;52.956;5.906;2022-07-12T13:15:28;26.70;99.90
29817;DHT22;16805;52.956;5.906;2022-07-12T13:17:54;26.70;99.90
29817;DHT22;16805;52.956;5.906;2022-07-12T13:20:21;26.60;99.90
29817;DHT22;16805;52.956;5.906;2022-07-12T13:22:46;26.60;99.90
29817;DHT22;16805;52.956;5.906;2022-07-12T13:25:13;26.60;99.90
29817;DHT22;16805;52.956;5.906;2022-07-12T13:27:40;26.60;99.90
29817;DHT22;16805;52.956;5.906;2022-07-12T13:30:08;26.60;99.90
29817;DHT22;16805;52.956;5.906;2022-07-12T13:32:35;26.60;99.90
29817;DHT22;16805;52.956;5.906;2022-07-12T13:35:01;26.60;99.90
29817;DHT22;16805;52.956;5.906;2022-07-12T13:37:28;26.60;99.90
29817;DHT22;16805;52.956;5.906;2022-07-12T13:39:54;26.60;99.90
29817;DHT22;16805;52.956;5.906;2022-07-12T13:42:43;26.60;99.90
29817;DHT22;16805;52.956;5.906;2022-07-12T13:45:10;26.60;99.90
29817;DHT22;16805;52.956;5.906;2022-07-12T13:47:37;26.60;99.90
29817;DHT22;16805;52.956;5.906;2022-07-12T13:50:04;26.70;99.90
29817;DHT22;16805;52.956;5.906;2022-07-12T13:52:30;26.60;99.90
29817;DHT22;16805;52.956;5.906;2022-07-12T13:54:56;26.60;99.90
29817;DHT22;16805;52.956;5.906;2022-07-12T13:57:21;26.70;99.90
29817;DHT22;16805;52.956;5.906;2022-07-12T13:59:47;26.60;99.90
29817;DHT22;16805;52.956;5.906;2022-07-12T14:02:31;26.70;99.90
29817;DHT22;16805;52.956;5.906;2022-07-12T14:04:57;26.70;99.90
29817;DHT22;16805;52.956;5.906;2022-07-12T14:07:23;26.60;99.90
29817;DHT22;16805;52.956;5.906;2022-07-12T14:09:48;26.70;99.90
29817;DHT22;16805;52.956;5.906;2022-07-12T14:12:14;26.60;99.90
29817;DHT22;16805;52.956;5.906;2022-07-12T14:14:40;26.60;99.90
29817;DHT22;16805;52.956;5.906;2022-07-12T14:17:24;26.60;99.90
29817;DHT22;16805;52.956;5.906;2022-07-12T14:19:50;26.60;99.90
29817;DHT22;16805;52.956;5.906;2022-07-12T14:22:16;26.60;99.90
29817;DHT22;16805;52.956;5.906;2022-07-12T14:24:41;26.60;99.90
29817;DHT22;16805;52.956;5.906;2022-07-12T14:27:08;26.60;99.90
29817;DHT22;16805;52.956;5.906;2022-07-12T14:29:33;26.70;99.90
29817;DHT22;16805;52.956;5.906;2022-07-12T14:31:59;26.60;99.90
29817;DHT22;16805;52.956;5.906;2022-07-12T14:34:26;26.70;99.90
29817;DHT22;16805;52.956;5.906;2022-07-12T14:37:11;26.60;99.90
29817;DHT22;16805;52.956;5.906;2022-07-12T14:39:36;26.60;99.90
29817;DHT22;16805;52.956;5.906;2022-07-12T14:42:02;26.60;99.90
29817;DHT22;16805;52.956;5.906;2022-07-12T14:44:27;26.60;99.90
29817;DHT22;16805;52.956;5.906;2022-07-12T14:46:53;26.60;99.90
29817;DHT22;16805;52.956;5.906;2022-07-12T14:49:20;26.50;99.90
29817;DHT22;16805;52.956;5.906;2022-07-12T14:51:46;26.50;99.90
29817;DHT22;16805;52.956;5.906;2022-07-12T14:54:11;26.50;99.90
29817;DHT22;16805;52.956;5.906;2022-07-12T14:56:37;26.50;99.90
29817;DHT22;16805;52.956;5.906;2022-07-12T14:59:03;26.40;99.90
29817;DHT22;16805;52.956;5.906;2022-07-12T15:01:28;26.40;99.90
29817;DHT22;16805;52.956;5.906;2022-07-12T15:03:54;26.40;99.90
29817;DHT22;16805;52.956;5.906;2022-07-12T15:06:20;26.40;99.90
29817;DHT22;16805;52.956;5.906;2022-07-12T15:08:46;26.40;99.90
29817;DHT22;16805;52.956;5.906;2022-07-12T15:11:12;26.40;99.90
29817;DHT22;16805;52.956;5.906;2022-07-12T15:13:37;26.40;99.90
29817;DHT22;16805;52.956;5.906;2022-07-12T15:16:03;26.40;99.90
29817;DHT22;16805;52.956;5.906;2022-07-12T15:18:29;26.40;99.90
29817;DHT22;16805;52.956;5.906;2022-07-12T15:20:55;26.40;99.90
29817;DHT22;16805;52.956;5.906;2022-07-12T15:23:21;26.40;99.90
29817;DHT22;16805;52.956;5.906;2022-07-12T15:25:47;26.40;99.90
29817;DHT22;16805;52.956;5.906;2022-07-12T15:28:13;26.40;99.90
29817;DHT22;16805;52.956;5.906;2022-07-12T15:30:39;26.40;99.90
29817;DHT22;16805;52.956;5.906;2022-07-12T15:33:05;26.40;99.90
29817;DHT22;16805;52.956;5.906;2022-07-12T15:35:30;26.40;99.90
29817;DHT22;16805;52.956;5.906;2022-07-12T15:37:56;26.40;99.90
29817;DHT22;16805;52.956;5.906;2022-07-12T15:40:22;26.30;99.90
29817;DHT22;16805;52.956;5.906;2022-07-12T15:42:47;26.30;99.90
29817;DHT22;16805;52.956;5.906;2022-07-12T15:45:13;26.30;99.90
29817;DHT22;16805;52.956;5.906;2022-07-12T15:47:39;26.30;99.90
29817;DHT22;16805;52.956;5.906;2022-07-12T15:50:05;26.30;99.90